createdAt,value
2023-02-06T00:01:31.472Z,5.80
2023-02-06T00:03:58.882Z,5.80
2023-02-06T00:06:26.406Z,5.80
2023-02-06T00:08:53.913Z,5.80
2023-02-06T00:11:22.038Z,5.90
2023-02-06T00:13:50.027Z,5.90
2023-02-06T00:16:18.467Z,5.90
2023-02-06T00:18:46.415Z,6.00
2023-02-06T00:21:14.250Z,5.90
2023-02-06T00:23:42.161Z,6.00
2023-02-06T00:26:09.807Z,6.00
2023-02-06T00:28:38.090Z,5.90
2023-02-06T00:31:06.901Z,5.90
2023-02-06T00:33:35.320Z,5.90
2023-02-06T00:36:04.021Z,6.00
2023-02-06T00:38:31.894Z,6.00
2023-02-06T00:40:59.585Z,6.00
2023-02-06T00:43:27.128Z,6.00
2023-02-06T00:45:56.754Z,6.10
2023-02-06T00:48:25.142Z,6.10
2023-02-06T00:50:54.078Z,6.20
2023-02-06T00:53:22.217Z,6.20
2023-02-06T00:55:49.792Z,6.30
2023-02-06T00:58:17.377Z,6.30
2023-02-06T01:00:45.156Z,6.30
2023-02-06T01:03:12.967Z,6.30
2023-02-06T01:05:40.374Z,6.30
2023-02-06T01:08:07.833Z,6.30
2023-02-06T01:10:35.351Z,6.30
2023-02-06T01:13:02.871Z,6.30
2023-02-06T01:15:30.373Z,6.30
2023-02-06T01:17:57.789Z,6.30
2023-02-06T01:20:25.365Z,6.30
2023-02-06T01:22:52.796Z,6.30
2023-02-06T01:25:20.420Z,6.30
2023-02-06T01:27:48.447Z,6.30
2023-02-06T01:30:16.132Z,6.30
2023-02-06T01:32:43.756Z,6.20
2023-02-06T01:35:12.364Z,6.20
2023-02-06T01:37:41.415Z,6.30
2023-02-06T01:40:13.937Z,6.30
2023-02-06T01:42:41.729Z,6.30
2023-02-06T01:45:41.255Z,6.30
2023-02-06T01:48:13.419Z,6.30
2023-02-06T01:50:42.279Z,6.30
2023-02-06T01:53:12.960Z,6.30
2023-02-06T01:55:41.915Z,6.30
2023-02-06T01:58:12.166Z,6.30
2023-02-06T02:00:39.921Z,6.30
2023-02-06T02:03:07.542Z,6.30
2023-02-06T02:05:36.482Z,6.30
2023-02-06T02:08:11.316Z,6.30
2023-02-06T02:10:38.929Z,6.30
2023-02-06T02:13:06.435Z,6.30
2023-02-06T02:15:57.722Z,6.30
2023-02-06T02:18:43.486Z,6.30
2023-02-06T02:21:20.142Z,6.30
2023-02-06T02:23:56.602Z,6.10
2023-02-06T02:26:30.091Z,6.00
2023-02-06T02:29:21.614Z,6.00
2023-02-06T02:32:16.979Z,5.90
2023-02-06T02:34:50.234Z,5.90
2023-02-06T02:37:40.728Z,5.90
2023-02-06T02:40:30.417Z,5.90
2023-02-06T02:43:14.933Z,5.90
2023-02-06T02:45:58.050Z,5.90
2023-02-06T02:48:33.109Z,6.00
2023-02-06T02:51:01.783Z,6.00
2023-02-06T02:53:29.463Z,6.10
2023-02-06T02:55:57.161Z,6.10
2023-02-06T02:58:31.681Z,6.10
2023-02-06T03:01:05.589Z,6.20
2023-02-06T03:03:37.668Z,6.20
2023-02-06T03:06:35.424Z,6.20
2023-02-06T03:09:06.198Z,6.20
2023-02-06T03:11:41.526Z,6.20
2023-02-06T03:14:17.123Z,6.30
2023-02-06T03:16:50.665Z,6.20
2023-02-06T03:19:35.927Z,6.10
2023-02-06T03:22:05.249Z,6.10
2023-02-06T03:24:39.173Z,5.80
2023-02-06T03:27:14.116Z,5.60
2023-02-06T03:29:44.702Z,5.40
2023-02-06T03:32:41.343Z,5.70
2023-02-06T03:35:20.604Z,5.60
2023-02-06T03:37:49.155Z,5.60
2023-02-06T03:40:18.414Z,5.60
2023-02-06T03:42:57.070Z,5.50
2023-02-06T03:45:27.048Z,5.40
2023-02-06T03:47:58.984Z,5.40
2023-02-06T03:50:27.368Z,5.10
2023-02-06T03:52:58.015Z,5.10
2023-02-06T03:55:26.022Z,5.10
2023-02-06T03:58:05.655Z,5.00
2023-02-06T04:00:34.801Z,5.00
2023-02-06T04:03:02.630Z,4.90
2023-02-06T04:05:30.539Z,4.80
2023-02-06T04:07:58.114Z,4.90
2023-02-06T04:10:26.514Z,4.70
2023-02-06T04:12:54.236Z,4.80
2023-02-06T04:15:22.014Z,4.80
2023-02-06T04:18:00.160Z,4.60
2023-02-06T04:20:29.766Z,4.60
2023-02-06T04:22:58.441Z,4.60
2023-02-06T04:25:26.557Z,4.60
2023-02-06T04:27:54.045Z,4.60
2023-02-06T04:30:21.701Z,4.70
2023-02-06T04:32:49.615Z,4.70
2023-02-06T04:35:17.677Z,4.70
2023-02-06T04:37:45.298Z,4.80
2023-02-06T04:40:13.296Z,4.80
2023-02-06T04:42:40.958Z,4.80
2023-02-06T04:45:08.937Z,4.70
2023-02-06T04:47:36.497Z,4.70
2023-02-06T04:50:05.099Z,4.70
2023-02-06T04:52:32.906Z,4.70
2023-02-06T04:55:00.376Z,4.60
2023-02-06T04:57:27.949Z,4.50
2023-02-06T04:59:55.410Z,4.50
2023-02-06T05:02:22.903Z,4.50
2023-02-06T05:04:50.339Z,4.60
2023-02-06T05:07:17.876Z,4.70
2023-02-06T05:09:46.204Z,4.60
2023-02-06T05:12:14.383Z,4.60
2023-02-06T05:14:41.917Z,4.60
2023-02-06T05:17:09.299Z,4.70
2023-02-06T05:19:36.846Z,4.70
2023-02-06T05:22:04.320Z,4.60
2023-02-06T05:24:31.983Z,4.60
2023-02-06T05:26:59.458Z,4.60
2023-02-06T05:29:26.984Z,4.70
2023-02-06T05:31:54.519Z,4.70
2023-02-06T05:34:22.037Z,4.60
2023-02-06T05:36:49.496Z,4.60
2023-02-06T05:39:16.961Z,4.70
2023-02-06T05:41:44.433Z,4.60
2023-02-06T05:44:11.893Z,4.60
2023-02-06T05:46:39.529Z,4.70
2023-02-06T05:49:07.139Z,4.70
2023-02-06T05:51:34.636Z,4.70
2023-02-06T05:54:02.512Z,4.70
2023-02-06T05:56:30.138Z,4.80
2023-02-06T05:58:57.652Z,4.70
2023-02-06T06:01:25.903Z,4.70
2023-02-06T06:03:53.432Z,4.80
2023-02-06T06:06:21.161Z,4.80
2023-02-06T06:08:48.714Z,4.80
2023-02-06T06:11:16.234Z,4.80
2023-02-06T06:13:44.012Z,4.80
2023-02-06T06:16:11.655Z,4.80
2023-02-06T06:18:39.155Z,4.90
2023-02-06T06:21:06.806Z,4.90
2023-02-06T06:23:34.361Z,4.90
2023-02-06T06:26:02.049Z,5.00
2023-02-06T06:28:29.534Z,5.00
2023-02-06T06:31:05.080Z,5.10
2023-02-06T06:33:32.873Z,5.10
2023-02-06T06:36:00.524Z,5.00
2023-02-06T06:38:28.109Z,5.10
2023-02-06T06:40:55.652Z,5.10
2023-02-06T06:43:23.293Z,5.20
2023-02-06T06:45:51.187Z,5.10
2023-02-06T06:48:18.788Z,5.10
2023-02-06T06:50:46.206Z,5.20
2023-02-06T06:53:13.726Z,5.10
2023-02-06T06:55:41.201Z,5.10
2023-02-06T06:58:08.717Z,5.20
2023-02-06T07:00:38.189Z,5.20
2023-02-06T07:03:07.198Z,5.10
2023-02-06T07:05:35.765Z,5.20
2023-02-06T07:08:03.444Z,5.20
2023-02-06T07:10:30.909Z,5.30
2023-02-06T07:12:58.410Z,5.20
2023-02-06T07:15:26.104Z,5.20
2023-02-06T07:17:53.699Z,5.40
2023-02-06T07:20:21.230Z,5.20
2023-02-06T07:22:50.325Z,5.30
2023-02-06T07:25:20.322Z,5.30
2023-02-06T07:27:47.971Z,5.10
2023-02-06T07:30:15.527Z,5.20
2023-02-06T07:32:42.986Z,5.20
2023-02-06T07:35:11.033Z,5.20
2023-02-06T07:37:38.527Z,5.20
2023-02-06T07:40:06.470Z,5.40
2023-02-06T07:42:34.128Z,5.60
2023-02-06T07:45:10.443Z,5.40
2023-02-06T07:47:37.925Z,5.30
2023-02-06T07:50:05.735Z,5.30
2023-02-06T07:52:33.228Z,5.40
2023-02-06T07:55:01.158Z,5.40
2023-02-06T07:57:28.762Z,5.30
2023-02-06T07:59:56.232Z,5.50
2023-02-06T08:02:23.796Z,5.30
2023-02-06T08:04:51.418Z,5.30
2023-02-06T08:07:19.169Z,5.20
2023-02-06T08:09:46.958Z,5.40
2023-02-06T08:12:14.478Z,5.40
2023-02-06T08:14:45.806Z,5.60
2023-02-06T08:17:13.717Z,5.50
2023-02-06T08:19:41.170Z,5.50
2023-02-06T08:22:08.662Z,5.50
2023-02-06T08:24:36.236Z,5.40
2023-02-06T08:27:03.689Z,5.60
2023-02-06T08:29:31.446Z,5.70
2023-02-06T08:31:58.874Z,5.60
2023-02-06T08:34:26.618Z,5.80
2023-02-06T08:36:54.070Z,5.80
2023-02-06T08:39:21.486Z,5.70
2023-02-06T08:41:50.013Z,5.80
2023-02-06T08:44:18.250Z,5.90
2023-02-06T08:46:47.918Z,6.10
2023-02-06T08:49:19.012Z,5.90
2023-02-06T08:51:46.957Z,6.10
2023-02-06T08:54:17.769Z,6.00
2023-02-06T08:56:45.567Z,5.80
2023-02-06T08:59:14.783Z,6.20
2023-02-06T09:01:45.528Z,6.10
2023-02-06T09:04:14.405Z,6.20
2023-02-06T09:06:48.920Z,6.20
2023-02-06T09:09:16.545Z,6.20
2023-02-06T09:11:44.373Z,5.90
2023-02-06T09:14:36.679Z,5.90
2023-02-06T09:17:04.195Z,6.00
2023-02-06T09:19:31.709Z,6.10
2023-02-06T09:21:59.207Z,5.90
2023-02-06T09:24:27.456Z,6.30
2023-02-06T09:26:59.934Z,6.10
2023-02-06T09:29:31.674Z,6.20
2023-02-06T09:32:00.093Z,6.30
2023-02-06T09:34:27.934Z,6.50
2023-02-06T09:36:56.815Z,6.10
2023-02-06T09:39:25.193Z,6.20
2023-02-06T09:42:02.865Z,6.10
2023-02-06T09:44:30.433Z,6.20
2023-02-06T09:47:22.832Z,6.10
2023-02-06T09:49:54.992Z,6.40
2023-02-06T09:52:34.863Z,6.50
2023-02-06T09:55:05.160Z,6.60
2023-02-06T09:58:04.962Z,6.60
2023-02-06T10:00:48.955Z,6.80
2023-02-06T10:03:39.689Z,6.90
2023-02-06T10:06:30.523Z,6.60
2023-02-06T10:09:17.412Z,6.60
2023-02-06T10:12:03.684Z,6.60
2023-02-06T10:14:58.494Z,6.80
2023-02-06T10:17:32.636Z,6.30
2023-02-06T10:20:19.842Z,6.50
2023-02-06T10:23:09.824Z,6.50
2023-02-06T10:25:42.462Z,6.60
2023-02-06T10:28:15.772Z,6.80
2023-02-06T10:31:17.281Z,6.70
2023-02-06T10:33:47.795Z,6.70
2023-02-06T10:36:29.578Z,6.80
2023-02-06T10:39:18.429Z,6.80
2023-02-06T10:41:48.844Z,6.30
2023-02-06T10:44:16.448Z,6.20
2023-02-06T10:46:48.377Z,6.30
2023-02-06T10:49:22.295Z,6.00
2023-02-06T10:51:57.172Z,6.30
2023-02-06T10:54:36.704Z,6.50
2023-02-06T10:57:09.645Z,6.40
2023-02-06T10:59:48.107Z,6.60
2023-02-06T11:02:48.996Z,6.70
2023-02-06T11:05:24.789Z,6.70
2023-02-06T11:08:14.661Z,6.80
2023-02-06T11:10:42.471Z,6.80
2023-02-06T11:13:28.719Z,6.80
2023-02-06T11:16:08.521Z,6.90
2023-02-06T11:18:40.263Z,6.90
2023-02-06T11:21:09.627Z,6.60
2023-02-06T11:23:37.061Z,6.80
2023-02-06T11:26:15.272Z,7.00
2023-02-06T11:29:09.094Z,6.90
2023-02-06T11:31:46.333Z,7.00
2023-02-06T11:34:27.735Z,6.70
2023-02-06T11:37:00.505Z,6.70
2023-02-06T11:39:39.263Z,6.80
2023-02-06T11:42:22.329Z,6.20
2023-02-06T11:44:49.862Z,6.60
2023-02-06T11:47:37.928Z,6.80
2023-02-06T11:50:14.939Z,6.90
2023-02-06T11:52:46.886Z,7.00
2023-02-06T11:55:42.586Z,7.10
2023-02-06T11:58:12.793Z,6.80
2023-02-06T12:00:52.253Z,6.40
2023-02-06T12:03:39.061Z,6.50
2023-02-06T12:06:17.489Z,6.60
2023-02-06T12:08:52.587Z,6.20
2023-02-06T12:11:23.053Z,6.40
2023-02-06T12:14:12.095Z,6.80
2023-02-06T12:16:41.959Z,6.80
2023-02-06T12:19:19.722Z,6.90
2023-02-06T12:21:53.882Z,7.00
2023-02-06T12:24:25.459Z,6.80
2023-02-06T12:26:55.459Z,6.90
2023-02-06T12:29:33.090Z,7.20
2023-02-06T12:32:14.881Z,7.20
2023-02-06T12:35:25.182Z,7.50
2023-02-06T12:37:56.914Z,7.40
2023-02-06T12:41:03.408Z,7.20
2023-02-06T12:43:34.631Z,6.90
2023-02-06T12:46:17.456Z,7.00
2023-02-06T12:48:51.293Z,7.20
2023-02-06T12:51:32.559Z,7.10
2023-02-06T12:54:06.158Z,6.80
2023-02-06T12:57:14.522Z,7.10
2023-02-06T13:00:06.730Z,7.30
2023-02-06T13:03:18.410Z,7.20
2023-02-06T13:05:49.355Z,7.20
2023-02-06T13:08:21.080Z,7.40
2023-02-06T13:10:59.789Z,7.00
2023-02-06T13:13:28.901Z,7.10
2023-02-06T13:16:00.478Z,7.30
2023-02-06T13:18:52.571Z,7.60
2023-02-06T13:21:24.709Z,7.50
2023-02-06T13:24:14.735Z,7.20
2023-02-06T13:26:51.546Z,6.80
2023-02-06T13:29:37.673Z,7.20
2023-02-06T13:32:19.972Z,7.30
2023-02-06T13:34:53.801Z,7.10
2023-02-06T13:37:40.056Z,6.80
2023-02-06T13:40:26.771Z,7.10
2023-02-06T13:43:10.120Z,6.80
2023-02-06T13:45:53.041Z,7.30
2023-02-06T13:48:23.693Z,7.30
2023-02-06T13:51:13.214Z,7.10
2023-02-06T13:53:59.200Z,7.20
2023-02-06T13:57:08.906Z,6.90
2023-02-06T13:59:41.034Z,7.20
2023-02-06T14:02:19.235Z,7.20
2023-02-06T14:04:47.152Z,7.40
2023-02-06T14:07:26.815Z,6.90
2023-02-06T14:10:34.810Z,7.00
2023-02-06T14:13:47.739Z,7.00
2023-02-06T14:16:26.612Z,7.10
2023-02-06T14:19:32.404Z,6.90
2023-02-06T14:22:33.824Z,6.90
2023-02-06T14:25:22.764Z,7.10
2023-02-06T14:28:16.233Z,6.90
2023-02-06T14:31:01.920Z,7.00
2023-02-06T14:34:03.752Z,7.20
2023-02-06T14:37:20.483Z,6.60
2023-02-06T14:39:57.810Z,6.80
2023-02-06T14:42:31.129Z,6.40
2023-02-06T14:45:05.860Z,6.30
2023-02-06T14:47:44.208Z,6.60
2023-02-06T14:50:18.432Z,6.70
2023-02-06T14:52:50.497Z,6.70
2023-02-06T14:55:45.929Z,6.50
2023-02-06T14:58:21.068Z,6.70
2023-02-06T15:00:48.786Z,6.40
2023-02-06T15:03:19.224Z,6.40
2023-02-06T15:05:47.097Z,6.20
2023-02-06T15:08:20.628Z,6.30
2023-02-06T15:10:56.287Z,6.40
2023-02-06T15:13:34.751Z,5.90
2023-02-06T15:16:05.942Z,6.20
2023-02-06T15:18:34.837Z,6.30
2023-02-06T15:21:08.245Z,6.40
2023-02-06T15:23:55.442Z,6.30
2023-02-06T15:26:39.602Z,6.40
2023-02-06T15:29:22.012Z,6.30
2023-02-06T15:31:57.421Z,6.20
2023-02-06T15:34:26.090Z,6.20
2023-02-06T15:36:53.967Z,5.90
2023-02-06T15:39:21.817Z,5.90
2023-02-06T15:41:51.517Z,6.00
2023-02-06T15:44:27.488Z,6.00
2023-02-06T15:49:41.500Z,6.00
2023-02-06T15:52:10.897Z,5.90
2023-02-06T15:54:45.092Z,5.80
2023-02-06T15:57:31.560Z,5.80
2023-02-06T15:59:59.997Z,5.80
2023-02-06T16:02:34.231Z,5.80
2023-02-06T16:05:02.687Z,5.70
2023-02-06T16:07:37.987Z,5.70
2023-02-06T16:10:29.976Z,5.70
2023-02-06T16:13:00.174Z,5.60
2023-02-06T16:18:26.410Z,5.50
2023-02-06T16:21:30.171Z,5.60
2023-02-06T16:24:02.552Z,5.40
2023-02-06T16:26:40.385Z,5.50
2023-02-06T16:29:10.649Z,5.50
2023-02-06T16:31:44.391Z,5.60
2023-02-06T16:34:31.526Z,5.60
2023-02-06T16:36:59.098Z,5.70
2023-02-06T16:39:26.532Z,5.70
2023-02-06T16:41:54.365Z,5.70
2023-02-06T16:44:22.049Z,5.60
2023-02-06T16:46:49.471Z,5.60
2023-02-06T16:49:22.057Z,5.60
2023-02-06T16:51:53.588Z,5.40
2023-02-06T16:54:25.905Z,5.30
2023-02-06T16:56:55.651Z,5.40
2023-02-06T16:59:23.347Z,5.50
2023-02-06T17:01:50.721Z,5.40
2023-02-06T17:04:18.193Z,5.40
2023-02-06T17:06:45.841Z,5.40
2023-02-06T17:09:17.374Z,5.30
2023-02-06T17:11:45.260Z,5.30
2023-02-06T17:14:12.804Z,5.30
2023-02-06T17:16:40.322Z,5.20
2023-02-06T17:19:07.826Z,5.20
2023-02-06T17:21:35.436Z,5.20
2023-02-06T17:24:02.876Z,5.10
2023-02-06T17:26:30.461Z,5.00
2023-02-06T17:28:58.059Z,5.00
2023-02-06T17:31:25.935Z,5.00
2023-02-06T17:33:53.551Z,5.00
2023-02-06T17:36:29.367Z,5.00
2023-02-06T17:38:58.976Z,4.80
2023-02-06T17:41:27.493Z,4.70
2023-02-06T17:43:55.032Z,4.70
2023-02-06T17:46:22.552Z,4.60
2023-02-06T17:48:50.101Z,4.70
2023-02-06T17:51:17.776Z,4.60
2023-02-06T17:53:45.312Z,4.60
2023-02-06T17:56:13.719Z,4.50
2023-02-06T17:58:41.874Z,4.50
2023-02-06T18:01:17.756Z,4.40
2023-02-06T18:03:47.937Z,4.40
2023-02-06T18:06:16.030Z,4.30
2023-02-06T18:08:43.738Z,4.20
2023-02-06T18:11:18.058Z,4.20
2023-02-06T18:13:47.610Z,4.20
2023-02-06T18:16:20.759Z,4.20
2023-02-06T18:18:48.848Z,4.10
2023-02-06T18:21:19.716Z,4.10
2023-02-06T18:23:48.464Z,4.00
2023-02-06T18:26:16.446Z,3.90
2023-02-06T18:28:44.663Z,3.80
2023-02-06T18:31:30.159Z,3.80
2023-02-06T18:33:58.957Z,3.80
2023-02-06T18:36:26.894Z,3.70
2023-02-06T18:38:55.137Z,3.70
2023-02-06T18:41:41.195Z,3.60
2023-02-06T18:44:10.419Z,3.60
2023-02-06T18:46:38.378Z,3.60
2023-02-06T18:49:06.312Z,3.50
2023-02-06T18:51:33.999Z,3.50
2023-02-06T18:54:02.159Z,3.50
2023-02-06T18:56:31.035Z,3.40
2023-02-06T18:58:58.682Z,3.40
2023-02-06T19:01:26.603Z,3.40
2023-02-06T19:03:54.554Z,3.30
2023-02-06T19:06:25.692Z,3.30
2023-02-06T19:08:53.101Z,3.20
2023-02-06T19:11:20.502Z,3.20
2023-02-06T19:13:48.447Z,3.20
2023-02-06T19:16:18.132Z,3.10
2023-02-06T19:18:47.973Z,3.10
2023-02-06T19:21:18.232Z,3.10
2023-02-06T19:23:47.705Z,3.20
2023-02-06T19:26:16.654Z,3.30
2023-02-06T19:28:44.860Z,3.20
2023-02-06T19:31:13.516Z,3.30
2023-02-06T19:33:41.996Z,3.30
2023-02-06T19:36:16.630Z,3.30
2023-02-06T19:38:44.483Z,3.20
2023-02-06T19:41:20.759Z,3.30
2023-02-06T19:43:48.642Z,3.30
2023-02-06T19:46:18.709Z,3.40
2023-02-06T19:48:47.648Z,3.40
2023-02-06T19:51:24.453Z,3.40
2023-02-06T19:53:53.665Z,3.50
2023-02-06T19:56:24.144Z,3.50
2023-02-06T19:58:56.159Z,3.50
2023-02-06T20:01:24.390Z,3.60
2023-02-06T20:03:52.471Z,3.60
2023-02-06T20:06:20.079Z,3.60
2023-02-06T20:08:48.079Z,3.70
2023-02-06T20:11:21.087Z,3.70
2023-02-06T20:13:52.070Z,3.70
2023-02-06T20:16:31.633Z,3.70
2023-02-06T20:19:04.916Z,3.70
2023-02-06T20:21:39.304Z,3.70
2023-02-06T20:24:14.768Z,3.70
2023-02-06T20:26:43.506Z,3.70
2023-02-06T20:29:19.777Z,3.70
2023-02-06T20:31:47.846Z,3.70
2023-02-06T20:34:15.907Z,3.70
2023-02-06T20:36:43.632Z,3.70
2023-02-06T20:39:13.087Z,3.60
2023-02-06T20:41:41.295Z,3.70
2023-02-06T20:44:10.996Z,3.60
2023-02-06T20:46:39.595Z,3.60
2023-02-06T20:49:12.754Z,3.60
2023-02-06T20:51:40.305Z,3.70
2023-02-06T20:54:08.121Z,3.70
2023-02-06T20:56:35.604Z,3.50
2023-02-06T20:59:03.318Z,3.50
2023-02-06T21:01:31.357Z,3.50
2023-02-06T21:04:02.852Z,3.50
2023-02-06T21:06:31.045Z,3.60
2023-02-06T21:09:01.721Z,3.60
2023-02-06T21:11:31.399Z,3.60
2023-02-06T21:14:01.441Z,3.60
2023-02-06T21:16:30.687Z,3.50
2023-02-06T21:18:59.999Z,3.60
2023-02-06T21:21:28.127Z,3.60
2023-02-06T21:23:56.281Z,3.50
2023-02-06T21:26:25.109Z,3.60
2023-02-06T21:28:53.812Z,3.50
2023-02-06T21:31:24.361Z,3.40
2023-02-06T21:33:52.657Z,3.40
2023-02-06T21:36:21.235Z,3.40
2023-02-06T21:38:48.915Z,3.40
2023-02-06T21:41:18.833Z,3.40
2023-02-06T21:43:46.640Z,3.40
2023-02-06T21:46:14.226Z,3.40
2023-02-06T21:48:41.830Z,3.50
2023-02-06T21:51:14.248Z,3.40
2023-02-06T21:53:43.370Z,3.40
2023-02-06T21:56:16.335Z,3.40
2023-02-06T21:58:44.227Z,3.40
2023-02-06T22:01:23.433Z,3.40
2023-02-06T22:03:51.282Z,3.40
2023-02-06T22:06:20.090Z,3.40
2023-02-06T22:08:51.957Z,3.40
2023-02-06T22:11:27.060Z,3.30
2023-02-06T22:13:58.844Z,3.30
2023-02-06T22:16:28.727Z,3.30
2023-02-06T22:18:56.705Z,3.20
2023-02-06T22:21:26.650Z,3.20
2023-02-06T22:24:00.687Z,3.20
2023-02-06T22:26:30.577Z,3.10
2023-02-06T22:28:59.132Z,3.10
2023-02-06T22:31:29.976Z,3.00
2023-02-06T22:33:59.504Z,3.00
2023-02-06T22:36:29.755Z,2.90
2023-02-06T22:39:03.838Z,2.90
2023-02-06T22:41:31.403Z,2.90
2023-02-06T22:43:59.134Z,2.90
2023-02-06T22:46:30.021Z,3.10
2023-02-06T22:48:57.609Z,2.90
2023-02-06T22:51:25.850Z,2.80
2023-02-06T22:53:53.605Z,2.70
2023-02-06T22:56:27.167Z,2.70
2023-02-06T22:58:56.324Z,2.70
2023-02-06T23:01:26.299Z,2.70
2023-02-06T23:03:55.319Z,2.70
2023-02-06T23:06:22.850Z,2.70
2023-02-06T23:08:50.407Z,2.70
2023-02-06T23:11:18.244Z,2.70
2023-02-06T23:16:13.941Z,2.70
2023-02-06T23:18:41.747Z,2.70
2023-02-06T23:21:12.027Z,2.70
2023-02-06T23:23:41.576Z,2.70
2023-02-06T23:26:11.771Z,2.70
2023-02-06T23:28:40.621Z,2.60
2023-02-06T23:31:09.762Z,2.50
2023-02-06T23:33:38.345Z,2.50
2023-02-06T23:36:14.559Z,2.50
2023-02-06T23:38:43.544Z,2.50
2023-02-06T23:41:13.508Z,2.50
2023-02-06T23:43:41.518Z,2.50
2023-02-06T23:46:11.978Z,2.40
2023-02-06T23:48:40.127Z,2.40
2023-02-06T23:51:07.999Z,2.40
2023-02-06T23:53:35.685Z,2.40
2023-02-06T23:56:23.823Z,2.40
2023-02-06T23:58:52.804Z,2.40
